Time;durP1;ratioP1;P1;durP2;ratioP2;P2;SDS_P1;SDS_P2;PMS_P1;PMS_P2;Temp;Humidity;BMP_temperature;BMP_pressure;BME280_temperature;BME280_humidity;BME280_pressure;Samples;Min_cycle;Max_cycle;Signal;HPM_P1;HPM_P2
2022/12/11 00:01:11;;;;;;;50.78;20.05;;;1.40;99.90;;;;;;5053012;28;20214;-45
2022/12/11 00:03:37;;;;;;;52.22;21.45;;;1.40;99.90;;;;;;5053274;28;20532;-45
2022/12/11 00:06:10;;;;;;;52.72;20.98;;;1.60;99.90;;;;;;5052494;28;20177;-47
2022/12/11 00:08:36;;;;;;;56.58;20.58;;;1.50;99.90;;;;;;5051768;28;20169;-44
2022/12/11 00:11:02;;;;;;;49.33;19.45;;;1.50;99.90;;;;;;5053234;28;20174;-45
2022/12/11 00:13:28;;;;;;;53.47;21.15;;;1.50;99.90;;;;;;5053186;28;20704;-46
2022/12/11 00:15:53;;;;;;;63.45;22.35;;;1.40;99.90;;;;;;5052885;28;20249;-45
2022/12/11 00:18:19;;;;;;;58.50;21.95;;;1.50;99.90;;;;;;5052910;28;20261;-45
2022/12/11 00:20:44;;;;;;;54.17;21.98;;;1.60;99.90;;;;;;5053171;28;20177;-45
2022/12/11 00:23:11;;;;;;;57.20;22.63;;;1.60;99.90;;;;;;5052693;28;20175;-44
2022/12/11 00:25:44;;;;;;;53.38;22.65;;;1.60;99.90;;;;;;5052681;28;20232;-45
2022/12/11 00:28:11;;;;;;;56.35;22.45;;;1.60;99.90;;;;;;5052558;28;20254;-45
2022/12/11 00:30:41;;;;;;;62.45;24.90;;;1.50;99.90;;;;;;5052575;28;20644;-47
2022/12/11 00:33:08;;;;;;;61.45;22.40;;;1.50;99.90;;;;;;5052610;28;20221;-47
2022/12/11 00:35:38;;;;;;;62.97;23.55;;;1.50;99.90;;;;;;5052797;28;20175;-45
2022/12/11 00:38:04;;;;;;;62.00;23.80;;;1.60;99.90;;;;;;5052495;28;20166;-45
2022/12/11 00:40:32;;;;;;;66.75;22.98;;;1.60;99.90;;;;;;5052493;28;20178;-45
2022/12/11 00:42:57;;;;;;;62.75;24.20;;;1.60;99.90;;;;;;5052467;28;20209;-46
2022/12/11 00:45:23;;;;;;;64.60;24.92;;;1.70;99.90;;;;;;5052339;28;20307;-47
2022/12/11 00:47:48;;;;;;;62.60;23.70;;;1.70;99.90;;;;;;5052615;28;20658;-53
2022/12/11 00:50:14;;;;;;;63.47;23.88;;;1.60;99.90;;;;;;5052545;28;20163;-50
2022/12/11 00:52:39;;;;;;;68.72;24.40;;;1.60;99.90;;;;;;5052213;28;20166;-50
2022/12/11 00:55:05;;;;;;;61.90;23.92;;;1.60;99.90;;;;;;5052113;28;20171;-52
2022/12/11 00:57:31;;;;;;;57.08;21.63;;;1.60;99.90;;;;;;5052370;28;20190;-49
2022/12/11 00:59:56;;;;;;;62.42;23.90;;;1.60;99.90;;;;;;5052070;28;20622;-47
2022/12/11 01:02:22;;;;;;;69.55;23.30;;;1.50;99.90;;;;;;5051797;28;20753;-46
2022/12/11 01:04:47;;;;;;;63.42;24.67;;;1.60;99.90;;;;;;5052249;28;20282;-45
2022/12/11 01:07:13;;;;;;;59.78;24.67;;;1.60;99.90;;;;;;5051577;28;20177;-45
2022/12/11 01:12:22;;;;;;;64.55;25.33;;;1.60;99.90;;;;;;5051954;28;20201;-45
2022/12/11 01:14:48;;;;;;;61.63;23.50;;;1.60;99.90;;;;;;5052224;28;20190;-45
2022/12/11 01:17:14;;;;;;;58.92;24.15;;;1.50;99.90;;;;;;5051739;28;20185;-44
2022/12/11 01:19:39;;;;;;;63.15;24.25;;;1.50;99.90;;;;;;5051808;28;20249;-45
2022/12/11 01:22:05;;;;;;;60.15;21.13;;;1.60;99.90;;;;;;5051743;28;20581;-51
2022/12/11 01:24:30;;;;;;;54.08;21.38;;;1.70;99.90;;;;;;5051695;28;20210;-45
2022/12/11 01:26:56;;;;;;;52.75;21.92;;;1.60;99.90;;;;;;5051795;28;20194;-44
2022/12/11 01:29:21;;;;;;;49.58;22.70;;;1.70;99.90;;;;;;5051630;28;20174;-46
2022/12/11 01:31:47;;;;;;;47.75;19.45;;;1.70;99.90;;;;;;5051993;28;20209;-45
2022/12/11 01:34:13;;;;;;;49.97;20.48;;;1.70;99.90;;;;;;5051661;28;20179;-45
2022/12/11 01:36:38;;;;;;;38.78;17.35;;;1.60;99.90;;;;;;5051597;28;20249;-45
2022/12/11 01:39:04;;;;;;;43.13;18.85;;;1.60;99.90;;;;;;5051491;28;20166;-49
2022/12/11 01:41:29;;;;;;;40.85;17.25;;;1.70;99.90;;;;;;5051632;28;20518;-44
2022/12/11 01:44:26;;;;;;;38.65;15.55;;;1.60;99.90;;;;;;5051522;28;20256;-45
2022/12/11 01:46:52;;;;;;;42.42;19.27;;;1.60;99.90;;;;;;5051373;28;20174;-45
2022/12/11 01:49:21;;;;;;;40.70;18.63;;;1.50;99.90;;;;;;5051881;28;20167;-44
2022/12/11 01:51:51;;;;;;;36.47;16.73;;;1.60;99.90;;;;;;5051885;28;20212;-44
2022/12/11 01:54:19;;;;;;;42.25;16.23;;;1.70;99.90;;;;;;5051998;28;20207;-44
2022/12/11 01:56:46;;;;;;;40.13;18.77;;;1.60;99.90;;;;;;5051841;28;20174;-45
2022/12/11 01:59:14;;;;;;;41.45;17.83;;;1.60;99.90;;;;;;5051414;28;20232;-50
2022/12/11 02:01:49;;;;;;;39.15;18.40;;;1.60;99.90;;;;;;5051178;28;20675;-51
2022/12/11 02:04:16;;;;;;;45.47;19.17;;;1.70;99.90;;;;;;5051900;28;20202;-48
2022/12/11 02:06:45;;;;;;;48.83;19.40;;;1.60;99.90;;;;;;5051544;28;20171;-51
2022/12/11 02:09:13;;;;;;;46.65;19.15;;;1.70;99.90;;;;;;5051277;28;20206;-50
2022/12/11 02:12:00;;;;;;;46.33;19.92;;;1.80;99.90;;;;;;5051238;28;20167;-45
2022/12/11 02:14:48;;;;;;;49.55;19.35;;;1.70;99.90;;;;;;5051313;28;20622;-48
2022/12/11 02:17:20;;;;;;;45.72;19.98;;;1.60;99.90;;;;;;5051498;28;20190;-45
2022/12/11 02:20:17;;;;;;;46.92;18.83;;;1.60;99.90;;;;;;5051618;28;20163;-45
2022/12/11 02:22:57;;;;;;;40.67;18.30;;;1.60;99.90;;;;;;5051154;28;20241;-45
2022/12/11 02:25:56;;;;;;;43.63;19.10;;;1.70;99.90;;;;;;5051106;28;20206;-45
2022/12/11 02:28:36;;;;;;;47.97;18.33;;;1.70;99.90;;;;;;5051245;28;20179;-45
2022/12/11 02:31:16;;;;;;;44.70;18.90;;;1.70;99.90;;;;;;5054877;28;20597;-44
2022/12/11 02:33:53;;;;;;;51.10;19.77;;;1.60;99.90;;;;;;5054859;28;20634;-45
2022/12/11 02:36:23;;;;;;;43.95;20.08;;;1.70;99.90;;;;;;5055013;28;20176;-45
2022/12/11 02:38:52;;;;;;;45.67;18.02;;;1.70;99.90;;;;;;5054748;28;20158;-44
2022/12/11 02:41:20;;;;;;;32.17;15.35;;;1.80;99.90;;;;;;5055105;28;20179;-44
2022/12/11 02:43:49;;;;;;;37.60;17.55;;;1.80;99.90;;;;;;5054877;28;20202;-44
2022/12/11 02:46:17;;;;;;;41.33;15.63;;;1.70;99.90;;;;;;5055010;28;20677;-45
2022/12/11 02:48:45;;;;;;;32.65;16.17;;;1.80;99.90;;;;;;5055083;28;20626;-45
2022/12/11 02:51:15;;;;;;;34.53;15.80;;;1.70;99.90;;;;;;5054578;28;20178;-45
2022/12/11 02:53:43;;;;;;;34.35;16.15;;;1.70;99.90;;;;;;5054375;28;20166;-45
2022/12/11 02:56:17;;;;;;;32.15;14.32;;;1.70;99.90;;;;;;5054447;28;20163;-45
2022/12/11 02:58:49;;;;;;;26.63;13.50;;;1.60;99.90;;;;;;5054674;28;20181;-45
2022/12/11 03:01:15;;;;;;;37.38;15.38;;;1.60;99.90;;;;;;5054701;28;20210;-45
2022/12/11 03:03:41;;;;;;;35.08;14.90;;;1.60;99.90;;;;;;5052955;28;20245;-45
2022/12/11 03:06:10;;;;;;;33.35;13.23;;;1.60;99.90;;;;;;5054305;28;20163;-45
2022/12/11 03:08:36;;;;;;;32.90;13.27;;;1.60;99.90;;;;;;5054135;28;20190;-45
2022/12/11 03:11:01;;;;;;;30.48;13.48;;;1.70;99.90;;;;;;5054197;28;20586;-45
2022/12/11 03:13:27;;;;;;;31.20;13.88;;;1.70;99.90;;;;;;5054150;28;20178;-45
2022/12/11 03:16:14;;;;;;;29.17;13.10;;;1.60;99.90;;;;;;5054104;28;20175;-44
2022/12/11 03:18:57;;;;;;;28.55;12.45;;;1.60;99.90;;;;;;5054030;28;20249;-45
2022/12/11 03:21:30;;;;;;;27.77;13.15;;;1.60;99.90;;;;;;5054053;28;20233;-44
2022/12/11 03:24:39;;;;;;;29.20;13.80;;;1.50;99.90;;;;;;5053875;28;20226;-44
2022/12/11 03:27:16;;;;;;;26.83;12.20;;;1.50;99.90;;;;;;5053947;28;20166;-44
2022/12/11 03:29:56;;;;;;;27.02;12.73;;;1.50;99.90;;;;;;5053859;28;20253;-45
2022/12/11 03:32:27;;;;;;;31.38;13.02;;;1.50;99.90;;;;;;5053733;28;20602;-44
2022/12/11 03:35:12;;;;;;;26.35;13.77;;;1.50;99.90;;;;;;5053706;28;20178;-45
2022/12/11 03:37:39;;;;;;;28.55;13.77;;;1.60;99.90;;;;;;5053604;28;20174;-44
2022/12/11 03:40:11;;;;;;;28.02;12.95;;;1.50;99.90;;;;;;5053304;28;20179;-44
2022/12/11 03:42:39;;;;;;;27.45;13.52;;;1.60;99.90;;;;;;5053178;28;20673;-44
2022/12/11 03:45:07;;;;;;;29.63;13.25;;;1.60;99.90;;;;;;5053468;28;20666;-45
2022/12/11 03:47:33;;;;;;;28.52;13.18;;;1.60;99.90;;;;;;5053653;28;20249;-45
2022/12/11 03:50:00;;;;;;;33.10;13.63;;;1.50;99.90;;;;;;5053537;28;20258;-45
2022/12/11 03:52:28;;;;;;;31.27;13.73;;;1.50;99.90;;;;;;5052143;28;20198;-45
2022/12/11 03:54:58;;;;;;;28.77;13.50;;;1.50;99.90;;;;;;5053324;28;20293;-45
2022/12/11 03:57:29;;;;;;;28.52;12.88;;;1.50;99.90;;;;;;5053316;28;20162;-46
2022/12/11 03:59:55;;;;;;;31.10;14.23;;;1.50;99.90;;;;;;5053459;28;20236;-45
2022/12/11 04:02:20;;;;;;;34.13;14.30;;;1.50;99.90;;;;;;5053088;28;20229;-45
2022/12/11 04:04:46;;;;;;;31.58;14.52;;;1.50;99.90;;;;;;5053543;28;20199;-45
2022/12/11 04:07:11;;;;;;;28.23;13.60;;;1.60;99.90;;;;;;5053064;28;20179;-45
2022/12/11 04:09:37;;;;;;;32.05;14.57;;;1.60;99.90;;;;;;5053105;28;20202;-45
2022/12/11 04:12:03;;;;;;;30.70;14.60;;;1.60;99.90;;;;;;5052938;28;20174;-45
2022/12/11 04:24:13;;;;;;;28.50;12.68;;;1.60;99.90;;;;;;5053365;28;20174;-45
2022/12/11 04:25:26;;;;;;;28.80;13.40;;;1.50;99.90;;;;;;5052575;28;20210;-45
2022/12/11 04:27:52;;;;;;;25.45;12.57;;;1.60;99.90;;;;;;5052697;28;20166;-45
2022/12/11 04:30:21;;;;;;;27.17;12.73;;;1.60;99.90;;;;;;5052981;28;20166;-45
2022/12/11 04:32:47;;;;;;;29.42;12.98;;;1.50;99.90;;;;;;5052894;28;20163;-45
2022/12/11 04:35:13;;;;;;;31.33;13.80;;;1.50;99.90;;;;;;5052988;28;20155;-45
2022/12/11 04:37:39;;;;;;;32.70;13.95;;;1.60;99.90;;;;;;5052520;28;20311;-44
2022/12/11 04:40:08;;;;;;;29.23;13.57;;;1.70;99.90;;;;;;5052415;28;20178;-45
2022/12/11 04:42:33;;;;;;;32.60;14.88;;;1.60;99.90;;;;;;5052362;28;20177;-46
2022/12/11 04:44:59;;;;;;;31.00;14.25;;;1.70;99.90;;;;;;5052325;28;20198;-44
2022/12/11 04:47:25;;;;;;;31.23;14.13;;;1.70;99.90;;;;;;5052402;28;20570;-45
2022/12/11 04:49:50;;;;;;;27.75;12.93;;;1.80;99.90;;;;;;5052297;28;20257;-44
2022/12/11 04:52:17;;;;;;;31.30;14.13;;;1.80;99.90;;;;;;5052809;28;20220;-45
2022/12/11 04:54:42;;;;;;;26.33;13.73;;;1.70;99.90;;;;;;5052697;28;20170;-45
2022/12/11 04:57:08;;;;;;;28.30;13.70;;;1.70;99.90;;;;;;5052365;28;20167;-45
2022/12/11 04:59:34;;;;;;;25.58;12.82;;;1.70;99.90;;;;;;5052183;28;20166;-45
2022/12/11 05:01:59;;;;;;;27.15;13.23;;;1.70;99.90;;;;;;5052000;28;20297;-46
2022/12/11 05:04:29;;;;;;;28.45;13.85;;;1.60;99.90;;;;;;5052012;28;20206;-45
2022/12/11 05:06:54;;;;;;;27.08;11.50;;;1.60;99.90;;;;;;5051159;28;20574;-45
2022/12/11 05:09:20;;;;;;;26.77;13.52;;;1.60;99.90;;;;;;5051966;28;20257;-44
2022/12/11 05:11:45;;;;;;;23.70;12.98;;;1.50;99.90;;;;;;5052288;28;20550;-45
2022/12/11 05:14:11;;;;;;;21.80;11.57;;;1.50;99.90;;;;;;5051939;28;20163;-45
2022/12/11 05:16:37;;;;;;;27.33;12.35;;;1.40;99.90;;;;;;5051877;28;20173;-45
2022/12/11 05:19:02;;;;;;;23.48;12.00;;;1.40;99.90;;;;;;5052152;28;20162;-45
2022/12/11 05:21:28;;;;;;;25.58;12.25;;;1.40;99.90;;;;;;5051921;28;20240;-45
2022/12/11 05:23:53;;;;;;;23.98;12.15;;;1.40;99.90;;;;;;5051782;28;20202;-46
2022/12/11 05:26:20;;;;;;;27.52;13.63;;;1.50;99.90;;;;;;5051777;28;20178;-45
2022/12/11 05:28:49;;;;;;;23.80;12.30;;;1.50;99.90;;;;;;5052284;28;20262;-45
2022/12/11 05:31:17;;;;;;;30.33;13.50;;;1.50;99.90;;;;;;5051969;28;20206;-45
2022/12/11 05:33:44;;;;;;;27.92;12.32;;;1.50;99.90;;;;;;5051935;28;20198;-44
2022/12/11 05:36:23;;;;;;;24.20;12.27;;;1.50;99.90;;;;;;5051649;28;20713;-46
2022/12/11 05:38:50;;;;;;;27.05;12.93;;;1.50;99.90;;;;;;5051665;28;20249;-49
2022/12/11 05:41:20;;;;;;;24.40;11.35;;;1.40;99.90;;;;;;5051974;28;20174;-45
2022/12/11 05:43:46;;;;;;;28.23;12.52;;;1.40;99.90;;;;;;5051929;28;20229;-45
2022/12/11 05:46:31;;;;;;;31.05;12.52;;;1.40;99.90;;;;;;5051612;28;20170;-45
2022/12/11 05:48:59;;;;;;;28.45;12.95;;;1.40;99.90;;;;;;5051636;28;20177;-47
2022/12/11 05:51:27;;;;;;;24.58;12.32;;;1.40;99.90;;;;;;5050295;28;20529;-47
2022/12/11 05:53:54;;;;;;;28.63;12.93;;;1.50;99.90;;;;;;5051524;28;20224;-46
2022/12/11 05:56:22;;;;;;;30.95;14.00;;;1.50;99.90;;;;;;5051509;28;20167;-48
2022/12/11 05:58:49;;;;;;;29.30;13.52;;;1.50;99.90;;;;;;5051077;28;20649;-45
2022/12/11 06:01:18;;;;;;;25.98;12.25;;;1.50;99.90;;;;;;5051496;28;20226;-46
2022/12/11 06:03:44;;;;;;;25.67;12.45;;;1.60;99.90;;;;;;5051963;28;20209;-46
2022/12/11 06:06:09;;;;;;;26.52;13.05;;;1.60;99.90;;;;;;5055437;28;20174;-46
2022/12/11 06:08:35;;;;;;;26.20;12.93;;;1.70;99.90;;;;;;5055338;28;20167;-46
2022/12/11 06:11:02;;;;;;;29.02;13.75;;;1.70;99.90;;;;;;5055289;28;20174;-46
2022/12/11 06:13:28;;;;;;;28.65;13.30;;;1.60;99.90;;;;;;5055232;28;20171;-46
2022/12/11 06:15:54;;;;;;;25.33;12.57;;;1.70;99.90;;;;;;5055253;28;20177;-47
2022/12/11 06:18:19;;;;;;;29.23;12.98;;;1.70;99.90;;;;;;5055216;28;20223;-51
2022/12/11 06:20:45;;;;;;;26.45;12.68;;;1.70;99.90;;;;;;5055582;28;20171;-51
2022/12/11 06:23:10;;;;;;;26.58;12.48;;;1.80;99.90;;;;;;5055109;28;20159;-47
2022/12/11 06:25:39;;;;;;;24.67;12.73;;;1.70;99.90;;;;;;5055020;28;20234;-46
2022/12/11 06:28:05;;;;;;;27.40;14.30;;;1.70;99.90;;;;;;5055133;28;20198;-46
2022/12/11 06:30:30;;;;;;;26.23;12.95;;;1.80;99.90;;;;;;5054980;28;20197;-50
2022/12/11 06:32:58;;;;;;;27.17;11.90;;;1.70;99.90;;;;;;5054975;28;20170;-45
2022/12/11 06:35:24;;;;;;;26.70;13.50;;;1.70;99.90;;;;;;5054937;28;20232;-45
2022/12/11 06:37:49;;;;;;;28.70;12.90;;;1.70;99.90;;;;;;5054829;28;20166;-45
2022/12/11 06:40:15;;;;;;;26.48;13.82;;;1.80;99.90;;;;;;5055153;28;20711;-46
2022/12/11 06:42:41;;;;;;;22.52;12.68;;;1.80;99.90;;;;;;5054746;28;20665;-46
2022/12/11 06:45:07;;;;;;;29.48;13.35;;;1.80;99.90;;;;;;5054900;28;20249;-47
2022/12/11 06:47:33;;;;;;;27.00;13.40;;;1.80;99.90;;;;;;5054647;28;20159;-46
2022/12/11 06:50:01;;;;;;;24.80;12.70;;;1.80;99.90;;;;;;5054678;28;20216;-48
2022/12/11 06:52:27;;;;;;;27.63;12.75;;;1.80;99.90;;;;;;5054826;28;20525;-45
2022/12/11 06:54:52;;;;;;;23.70;12.00;;;1.70;99.90;;;;;;5054443;28;20162;-46
2022/12/11 06:57:19;;;;;;;23.88;11.48;;;1.70;99.90;;;;;;5054537;28;20170;-46
2022/12/11 06:59:45;;;;;;;27.73;11.90;;;1.70;99.90;;;;;;5054796;28;20515;-48
2022/12/11 07:02:15;;;;;;;27.33;12.32;;;1.60;99.90;;;;;;5054346;28;20206;-47
2022/12/11 07:04:41;;;;;;;22.38;11.90;;;1.70;99.90;;;;;;5054259;28;20206;-45
2022/12/11 07:07:08;;;;;;;24.55;11.88;;;1.70;99.90;;;;;;5054224;28;20163;-49
2022/12/11 07:09:34;;;;;;;25.00;11.55;;;1.60;99.90;;;;;;5054152;28;20177;-46
2022/12/11 07:11:59;;;;;;;25.15;13.25;;;1.70;99.90;;;;;;5054232;28;20167;-51
2022/12/11 07:14:25;;;;;;;23.23;12.13;;;1.70;99.90;;;;;;5054059;28;20173;-47
2022/12/11 07:16:51;;;;;;;25.13;13.50;;;1.80;99.90;;;;;;5052701;28;20169;-48
2022/12/11 07:19:17;;;;;;;19.30;10.63;;;1.90;99.90;;;;;;5054081;28;20174;-47
2022/12/11 07:21:42;;;;;;;22.75;11.35;;;1.90;99.90;;;;;;5054381;28;20209;-45
2022/12/11 07:24:08;;;;;;;24.00;12.93;;;1.80;99.90;;;;;;5053904;28;20210;-46
2022/12/11 07:26:33;;;;;;;24.02;12.55;;;1.80;99.90;;;;;;5053607;28;20213;-45
2022/12/11 07:28:59;;;;;;;23.98;12.98;;;1.90;99.90;;;;;;5053603;28;20254;-45
2022/12/11 07:31:26;;;;;;;29.75;13.52;;;1.80;99.90;;;;;;5053749;28;20167;-46
2022/12/11 07:33:54;;;;;;;35.63;13.52;;;1.90;99.90;;;;;;5053785;28;20171;-45
2022/12/11 07:36:20;;;;;;;25.67;11.90;;;1.90;99.90;;;;;;5053575;28;20174;-45
2022/12/11 07:38:46;;;;;;;25.27;13.25;;;1.90;99.90;;;;;;5053777;28;20167;-45
2022/12/11 07:41:13;;;;;;;28.45;12.40;;;1.90;99.90;;;;;;5053737;28;20178;-45
2022/12/11 07:43:39;;;;;;;25.95;11.45;;;1.90;99.90;;;;;;5052103;28;20670;-45
2022/12/11 07:46:07;;;;;;;24.60;13.45;;;1.90;99.90;;;;;;5053553;28;20178;-46
2022/12/11 07:48:38;;;;;;;31.45;13.73;;;1.90;99.90;;;;;;5053462;28;20195;-46
2022/12/11 07:51:14;;;;;;;24.27;12.15;;;1.90;99.90;;;;;;5053486;28;20201;-45
2022/12/11 07:53:49;;;;;;;23.52;12.02;;;2.00;99.90;;;;;;5053104;28;20174;-46
2022/12/11 07:56:16;;;;;;;27.08;12.40;;;2.10;99.90;;;;;;5053743;28;20166;-45
2022/12/11 07:58:41;;;;;;;26.15;12.43;;;2.10;99.90;;;;;;5053612;28;20178;-45
2022/12/11 08:01:12;;;;;;;23.83;11.90;;;2.00;99.90;;;;;;5053219;28;20214;-45
2022/12/11 08:03:38;;;;;;;32.13;13.63;;;2.00;99.90;;;;;;5053271;28;20209;-45
2022/12/11 08:06:04;;;;;;;28.38;14.43;;;2.00;99.90;;;;;;5052947;28;20270;-45
2022/12/11 08:08:30;;;;;;;25.80;13.85;;;2.10;99.90;;;;;;5053204;28;20649;-45
2022/12/11 08:11:00;;;;;;;24.77;12.10;;;2.10;99.90;;;;;;5053277;28;20166;-45
2022/12/11 08:13:26;;;;;;;20.77;10.68;;;2.20;99.90;;;;;;5053058;28;20525;-45
2022/12/11 08:15:51;;;;;;;25.83;12.63;;;2.10;99.90;;;;;;5052857;28;20525;-45
2022/12/11 08:18:17;;;;;;;23.92;12.18;;;2.00;99.90;;;;;;5052913;28;20163;-45
2022/12/11 08:20:42;;;;;;;27.63;13.93;;;2.10;99.90;;;;;;5053267;28;20204;-45
2022/12/11 08:23:08;;;;;;;28.65;12.43;;;2.10;99.90;;;;;;5052822;28;20695;-45
2022/12/11 08:25:34;;;;;;;25.45;13.90;;;2.10;99.90;;;;;;5052259;28;20687;-45
2022/12/11 08:28:00;;;;;;;26.23;13.60;;;2.10;99.90;;;;;;5052494;28;20250;-46
2022/12/11 08:30:26;;;;;;;28.52;13.70;;;2.10;99.90;;;;;;5052389;28;20652;-46
2022/12/11 08:32:51;;;;;;;27.55;13.35;;;2.10;99.90;;;;;;5052695;28;20162;-45
2022/12/11 08:35:17;;;;;;;25.90;13.10;;;2.10;99.90;;;;;;5052564;28;20645;-48
2022/12/11 08:37:42;;;;;;;26.20;13.25;;;2.30;99.90;;;;;;5052974;28;20192;-46
2022/12/11 08:40:09;;;;;;;26.08;14.23;;;2.30;99.90;;;;;;5052484;28;20695;-46
2022/12/11 08:42:35;;;;;;;24.05;12.75;;;2.40;99.90;;;;;;5052323;28;20246;-45
2022/12/11 08:45:00;;;;;;;25.60;14.52;;;2.30;99.90;;;;;;5052191;28;20304;-47
2022/12/11 08:47:26;;;;;;;28.85;14.40;;;2.30;99.90;;;;;;5052339;28;20166;-47
2022/12/11 08:49:52;;;;;;;26.60;13.43;;;2.20;99.90;;;;;;5052654;28;20179;-46
2022/12/11 08:52:17;;;;;;;29.08;14.65;;;2.20;99.90;;;;;;5052246;28;20212;-45
2022/12/11 08:54:43;;;;;;;28.25;13.25;;;2.30;99.90;;;;;;5052510;28;20257;-46
2022/12/11 08:57:08;;;;;;;27.27;14.57;;;2.30;99.90;;;;;;5052137;28;20260;-47
2022/12/11 08:59:34;;;;;;;28.08;13.25;;;2.30;99.90;;;;;;5051955;28;20182;-45
2022/12/11 09:01:59;;;;;;;26.88;12.48;;;2.30;99.90;;;;;;5051824;28;20410;-45
2022/12/11 09:04:26;;;;;;;24.17;14.07;;;2.30;99.90;;;;;;5052120;28;20317;-46
2022/12/11 09:06:52;;;;;;;23.75;14.32;;;2.30;99.90;;;;;;5052146;28;20665;-45
2022/12/11 09:09:17;;;;;;;33.63;14.52;;;2.50;99.90;;;;;;5048814;28;20261;-45
2022/12/11 09:11:43;;;;;;;27.95;14.00;;;2.40;99.90;;;;;;5050477;28;20634;-45
2022/12/11 09:14:09;;;;;;;24.83;13.32;;;2.30;99.90;;;;;;5050110;28;20178;-45
2022/12/11 09:16:38;;;;;;;26.15;14.35;;;2.30;99.90;;;;;;5050371;28;20257;-46
2022/12/11 09:19:06;;;;;;;26.42;14.45;;;2.30;99.90;;;;;;5050307;28;20193;-46
2022/12/11 09:21:32;;;;;;;27.02;12.80;;;2.30;99.90;;;;;;5050018;28;20254;-45
2022/12/11 09:24:00;;;;;;;26.65;14.52;;;2.30;99.90;;;;;;5050084;28;20288;-47
2022/12/11 09:26:27;;;;;;;20.13;12.48;;;2.30;99.90;;;;;;5049922;28;20694;-44
2022/12/11 09:28:54;;;;;;;22.23;13.27;;;2.20;99.90;;;;;;5050521;28;20561;-45
2022/12/11 09:31:22;;;;;;;22.40;12.68;;;2.20;99.90;;;;;;5049902;28;20174;-45
2022/12/11 09:33:48;;;;;;;26.35;11.98;;;2.30;99.90;;;;;;5049848;28;20224;-45
2022/12/11 09:36:13;;;;;;;21.52;11.30;;;2.30;99.90;;;;;;5050159;28;20171;-43
2022/12/11 09:38:39;;;;;;;23.00;12.23;;;2.30;99.90;;;;;;5048932;28;20202;-44
2022/12/11 09:41:20;;;;;;;18.48;10.10;;;2.30;99.90;;;;;;5049793;28;20501;-44
2022/12/11 09:43:56;;;;;;;19.98;11.25;;;2.40;99.90;;;;;;5049895;28;20208;-45
2022/12/11 09:46:23;;;;;;;20.67;10.32;;;2.40;99.90;;;;;;5049580;28;20634;-44
2022/12/11 09:48:49;;;;;;;18.73;11.10;;;2.30;99.90;;;;;;5049723;28;20180;-44
2022/12/11 09:51:29;;;;;;;22.55;11.85;;;2.20;99.90;;;;;;5050483;28;20180;-45
2022/12/11 09:53:59;;;;;;;20.10;12.20;;;2.30;99.90;;;;;;5050011;28;20227;-47
2022/12/11 09:56:31;;;;;;;21.45;12.15;;;2.30;99.90;;;;;;5049845;28;20615;-45
2022/12/11 09:59:22;;;;;;;18.77;11.23;;;2.30;99.90;;;;;;5049493;28;20650;-46
2022/12/11 10:02:24;;;;;;;25.17;14.02;;;2.40;99.90;;;;;;5049381;28;20218;-45
2022/12/11 10:05:03;;;;;;;23.33;12.57;;;2.40;99.90;;;;;;5049447;28;20221;-44
2022/12/11 10:07:55;;;;;;;20.95;12.38;;;2.40;99.90;;;;;;5049499;28;20198;-43
2022/12/11 10:10:41;;;;;;;21.98;12.98;;;2.50;99.90;;;;;;5049330;28;20171;-44
2022/12/11 10:13:19;;;;;;;23.75;12.32;;;2.50;99.90;;;;;;5049694;28;20175;-45
2022/12/11 10:16:20;;;;;;;20.27;11.52;;;2.50;99.90;;;;;;5049817;28;20167;-44
2022/12/11 10:18:47;;;;;;;22.02;12.73;;;2.60;99.90;;;;;;5045409;28;20244;-44
2022/12/11 10:21:15;;;;;;;22.08;12.85;;;2.60;99.90;;;;;;5050242;28;20170;-43
2022/12/11 10:23:58;;;;;;;26.88;14.27;;;2.60;99.90;;;;;;5049716;28;20276;-44
2022/12/11 10:26:24;;;;;;;26.70;14.02;;;2.70;99.90;;;;;;5049758;28;20569;-47
2022/12/11 10:28:49;;;;;;;25.80;11.68;;;2.80;99.90;;;;;;5049326;28;20280;-44
2022/12/11 10:31:55;;;;;;;25.90;13.15;;;2.80;99.90;;;;;;5049263;28;20178;-43
2022/12/11 10:34:33;;;;;;;20.88;11.52;;;2.80;99.90;;;;;;5049367;28;20175;-44
2022/12/11 10:36:59;;;;;;;22.77;12.23;;;2.80;99.90;;;;;;5049521;28;20257;-45
2022/12/11 10:39:24;;;;;;;27.40;12.73;;;2.80;99.90;;;;;;5049239;28;20254;-44
2022/12/11 10:41:52;;;;;;;21.85;12.20;;;2.80;99.90;;;;;;5049313;28;20202;-45
2022/12/11 10:44:29;;;;;;;22.73;11.55;;;2.80;99.90;;;;;;5049241;28;20198;-44
2022/12/11 10:47:14;;;;;;;25.77;12.35;;;2.80;99.90;;;;;;5049122;28;20618;-49
2022/12/11 10:49:55;;;;;;;21.85;12.00;;;2.70;99.90;;;;;;5049479;28;20174;-44
2022/12/11 10:52:30;;;;;;;21.10;12.07;;;2.80;99.90;;;;;;5053246;28;20224;-46
2022/12/11 10:55:02;;;;;;;22.52;12.25;;;2.70;99.90;;;;;;5052989;28;20178;-46
2022/12/11 10:57:32;;;;;;;21.85;11.63;;;2.70;99.90;;;;;;5051523;28;20658;-44
2022/12/11 10:59:59;;;;;;;24.50;12.70;;;2.70;99.90;;;;;;5052685;28;20281;-44
2022/12/11 11:02:29;;;;;;;25.33;11.98;;;2.70;99.90;;;;;;5052415;28;20214;-45
2022/12/11 11:04:57;;;;;;;25.63;12.52;;;2.60;99.90;;;;;;5052220;28;20210;-47
2022/12/11 11:07:28;;;;;;;26.25;13.23;;;2.60;99.90;;;;;;5052300;28;20166;-45
2022/12/11 11:10:10;;;;;;;28.90;15.77;;;2.70;99.90;;;;;;5051679;28;20423;-47
2022/12/11 11:12:41;;;;;;;23.92;13.63;;;2.80;99.90;;;;;;5052483;28;20696;-44
2022/12/11 11:15:21;;;;;;;22.67;12.98;;;2.70;99.90;;;;;;5049455;28;20185;-45
2022/12/11 11:17:50;;;;;;;25.55;13.43;;;2.70;99.90;;;;;;5052404;28;20162;-44
2022/12/11 11:20:19;;;;;;;24.80;13.73;;;2.80;99.90;;;;;;5052151;28;20170;-45
2022/12/11 11:22:58;;;;;;;27.63;14.55;;;2.70;99.90;;;;;;5051372;28;20198;-45
2022/12/11 11:25:26;;;;;;;27.63;15.43;;;2.80;99.90;;;;;;5052056;28;20248;-49
2022/12/11 11:27:55;;;;;;;22.77;12.65;;;2.80;99.90;;;;;;5052046;28;20246;-45
2022/12/11 11:30:26;;;;;;;28.65;13.82;;;2.80;99.90;;;;;;5051977;28;20171;-45
2022/12/11 11:33:19;;;;;;;26.70;14.02;;;2.80;99.90;;;;;;5051045;28;20250;-47
2022/12/11 11:36:01;;;;;;;28.90;14.18;;;2.80;99.90;;;;;;5049515;28;20201;-45
2022/12/11 11:38:35;;;;;;;26.83;13.32;;;2.80;99.90;;;;;;5052111;28;20202;-46
2022/12/11 11:41:24;;;;;;;27.77;14.75;;;2.70;99.90;;;;;;5052031;28;20167;-43
2022/12/11 11:43:59;;;;;;;24.17;13.50;;;2.70;99.90;;;;;;5051985;28;20214;-44
2022/12/11 11:46:35;;;;;;;25.45;11.65;;;2.70;99.90;;;;;;5051759;28;20181;-43
2022/12/11 11:49:28;;;;;;;28.42;12.77;;;2.70;99.90;;;;;;5051936;28;20174;-44
2022/12/11 11:52:10;;;;;;;22.25;12.75;;;2.50;99.90;;;;;;5051737;28;20178;-44
2022/12/11 11:55:08;;;;;;;34.28;14.98;;;2.50;99.90;;;;;;5051774;28;20182;-45
2022/12/11 11:57:46;;;;;;;31.75;14.75;;;2.60;99.90;;;;;;5052034;28;20174;-44
2022/12/11 12:00:26;;;;;;;27.77;13.35;;;2.70;99.90;;;;;;5051962;28;20710;-44
2022/12/11 12:02:59;;;;;;;28.45;14.32;;;2.70;99.90;;;;;;5050963;28;20170;-47
2022/12/11 12:05:36;;;;;;;30.45;14.27;;;2.70;99.90;;;;;;5050228;28;20616;-45
2022/12/11 12:08:05;;;;;;;29.00;14.07;;;2.70;99.90;;;;;;5050142;28;20257;-44
2022/12/11 12:10:42;;;;;;;32.15;15.40;;;2.70;99.90;;;;;;5051261;28;20347;-44
2022/12/11 12:13:25;;;;;;;26.65;14.70;;;2.70;99.90;;;;;;5051472;28;20253;-44
2022/12/11 12:15:56;;;;;;;28.70;14.68;;;2.70;99.90;;;;;;5051280;28;20171;-44
2022/12/11 12:18:47;;;;;;;30.30;14.73;;;2.70;99.90;;;;;;5051206;28;20692;-45
2022/12/11 12:21:35;;;;;;;27.20;15.07;;;2.70;99.90;;;;;;5051281;28;20162;-43
2022/12/11 12:24:04;;;;;;;32.58;15.27;;;2.80;99.90;;;;;;5051153;28;20210;-45
2022/12/11 12:26:32;;;;;;;36.67;16.40;;;2.80;99.90;;;;;;5051241;28;20170;-45
2022/12/11 12:29:35;;;;;;;32.53;16.60;;;2.80;99.90;;;;;;5051063;28;20163;-44
2022/12/11 12:32:13;;;;;;;36.47;15.70;;;2.90;99.90;;;;;;5050887;28;20166;-45
2022/12/11 12:34:53;;;;;;;33.47;17.38;;;2.90;99.90;;;;;;5050874;28;20166;-43
2022/12/11 12:37:45;;;;;;;36.95;17.52;;;2.80;99.90;;;;;;5050895;28;20169;-43
2022/12/11 12:40:16;;;;;;;33.95;17.15;;;2.90;99.90;;;;;;5050403;28;20185;-45
2022/12/11 12:43:27;;;;;;;44.38;21.98;;;2.90;99.90;;;;;;5051054;28;20254;-44
2022/12/11 12:46:04;;;;;;;31.70;14.40;;;3.00;99.90;;;;;;5049718;28;20202;-44
2022/12/11 12:48:30;;;;;;;39.63;17.98;;;3.00;99.90;;;;;;5050574;28;20174;-44
2022/12/11 12:50:56;;;;;;;43.42;17.98;;;2.90;99.90;;;;;;5050493;28;20166;-43
2022/12/11 12:53:26;;;;;;;36.15;16.90;;;2.90;99.90;;;;;;5050665;28;20533;-43
2022/12/11 12:55:52;;;;;;;37.70;18.00;;;3.00;99.90;;;;;;5050909;28;20661;-44
2022/12/11 12:58:33;;;;;;;35.92;16.73;;;3.10;99.90;;;;;;5050458;28;20163;-44
2022/12/11 13:01:21;;;;;;;37.33;17.35;;;3.20;99.90;;;;;;5050398;28;20301;-45
2022/12/11 13:03:52;;;;;;;37.97;15.82;;;3.10;99.90;;;;;;5049154;28;20254;-43